createdAt,value
2017-11-24T00:00:28.152Z,4.77
2017-11-24T00:02:56.483Z,4.80
2017-11-24T00:05:24.055Z,4.77
2017-11-24T00:07:51.595Z,5.23
2017-11-24T00:10:19.168Z,5.10
2017-11-24T00:12:46.721Z,4.40
2017-11-24T00:15:14.268Z,5.13
2017-11-24T00:17:41.876Z,5.00
2017-11-24T00:20:09.428Z,5.20
2017-11-24T00:22:36.997Z,5.03
2017-11-24T00:25:04.550Z,4.60
2017-11-24T00:27:32.194Z,5.00
2017-11-24T00:29:59.782Z,5.20
2017-11-24T00:32:27.366Z,4.87
2017-11-24T00:34:55.688Z,4.80
2017-11-24T00:37:23.262Z,4.83
2017-11-24T00:39:50.834Z,5.40
2017-11-24T00:42:18.418Z,4.77
2017-11-24T00:44:45.993Z,4.93
2017-11-24T00:47:14.323Z,5.40
2017-11-24T00:49:41.888Z,5.23
2017-11-24T00:52:09.500Z,4.83
2017-11-24T00:54:37.045Z,4.67
2017-11-24T00:57:05.381Z,5.00
2017-11-24T00:59:32.941Z,4.50
2017-11-24T01:02:00.510Z,5.30
2017-11-24T01:04:28.062Z,4.67
2017-11-24T01:06:55.615Z,4.83
2017-11-24T01:09:23.210Z,6.00
2017-11-24T01:11:50.770Z,4.90
2017-11-24T01:14:18.326Z,4.90
2017-11-24T01:16:45.930Z,5.00
2017-11-24T01:19:13.641Z,4.83
2017-11-24T01:21:41.333Z,4.90
2017-11-24T01:24:09.671Z,5.30
2017-11-24T01:26:37.242Z,4.73
2017-11-24T01:29:04.843Z,4.83
2017-11-24T01:31:33.191Z,4.83
2017-11-24T01:34:00.774Z,4.67
2017-11-24T01:36:29.091Z,4.80
2017-11-24T01:38:56.674Z,4.83
2017-11-24T01:41:24.243Z,4.60
2017-11-24T01:43:51.850Z,5.10
2017-11-24T01:46:19.409Z,5.37
2017-11-24T01:48:47.003Z,4.93
2017-11-24T01:51:14.551Z,4.70
2017-11-24T01:53:42.123Z,4.73
2017-11-24T01:56:09.670Z,5.10
2017-11-24T01:58:37.255Z,4.43
2017-11-24T02:01:04.834Z,5.30
2017-11-24T02:03:32.398Z,4.77
2017-11-24T02:05:59.940Z,4.63
2017-11-24T02:08:27.548Z,5.10
2017-11-24T02:10:55.129Z,4.93
2017-11-24T02:13:23.457Z,5.30
2017-11-24T02:15:51.151Z,5.20
2017-11-24T02:18:18.943Z,4.50
2017-11-24T02:20:46.593Z,5.30
2017-11-24T02:23:14.146Z,5.20
2017-11-24T02:25:41.737Z,4.60
2017-11-24T02:28:09.291Z,4.90
2017-11-24T02:30:36.869Z,4.50
2017-11-24T02:33:04.445Z,5.30
2017-11-24T02:35:32.033Z,5.37
2017-11-24T02:38:00.388Z,4.50
2017-11-24T02:40:28.783Z,5.17
2017-11-24T02:42:56.389Z,5.10
2017-11-24T02:45:23.948Z,4.50
2017-11-24T02:47:51.530Z,5.13
2017-11-24T02:50:19.105Z,5.30
2017-11-24T02:52:46.676Z,5.20
2017-11-24T02:55:14.238Z,5.03
2017-11-24T02:57:41.823Z,5.40
2017-11-24T03:00:09.394Z,5.27
2017-11-24T03:02:36.975Z,4.40
2017-11-24T03:05:04.545Z,5.10
2017-11-24T03:07:32.315Z,5.27
2017-11-24T03:09:59.940Z,5.80
2017-11-24T03:12:27.557Z,4.90
2017-11-24T03:14:55.160Z,5.37
2017-11-24T03:17:22.730Z,5.30
2017-11-24T03:19:50.307Z,4.83
2017-11-24T03:22:17.857Z,4.77
2017-11-24T03:24:45.438Z,4.80
2017-11-24T03:27:12.986Z,5.07
2017-11-24T03:29:40.742Z,5.17
2017-11-24T03:32:08.431Z,5.13
2017-11-24T03:34:36.022Z,5.60
2017-11-24T03:37:04.390Z,5.60
2017-11-24T03:39:32.024Z,5.43
2017-11-24T03:41:59.586Z,4.87
2017-11-24T03:44:27.152Z,5.33
2017-11-24T03:46:54.780Z,5.63
2017-11-24T03:49:23.082Z,5.10
2017-11-24T03:51:50.645Z,5.20
2017-11-24T03:54:18.219Z,5.70
2017-11-24T03:56:45.776Z,5.43
2017-11-24T03:59:13.411Z,5.20
2017-11-24T04:01:41.121Z,5.97
2017-11-24T04:04:09.478Z,5.70
2017-11-24T04:06:37.035Z,5.17
2017-11-24T04:09:04.646Z,5.93
2017-11-24T04:11:32.966Z,5.00
2017-11-24T04:14:00.688Z,5.70
2017-11-24T04:16:34.087Z,4.90
2017-11-24T04:19:01.674Z,5.30
2017-11-24T04:21:29.990Z,5.50
2017-11-24T04:23:57.558Z,5.40
2017-11-24T04:26:25.114Z,6.00
2017-11-24T04:28:52.679Z,5.40
2017-11-24T04:31:20.240Z,5.43
2017-11-24T04:33:47.801Z,6.10
2017-11-24T04:36:15.363Z,5.47
2017-11-24T04:38:42.930Z,5.67
2017-11-24T04:41:10.486Z,5.90
2017-11-24T04:43:38.070Z,5.50
2017-11-24T04:46:05.622Z,5.50
2017-11-24T04:48:33.178Z,5.10
2017-11-24T04:51:00.779Z,5.90
2017-11-24T04:53:29.114Z,5.57
2017-11-24T04:55:56.686Z,4.97
2017-11-24T04:58:24.253Z,5.70
2017-11-24T05:00:52.614Z,5.50
2017-11-24T05:03:20.166Z,5.77
2017-11-24T05:05:47.721Z,5.40
2017-11-24T05:08:15.298Z,5.80
2017-11-24T05:10:42.859Z,5.13
2017-11-24T05:13:10.446Z,5.90
2017-11-24T05:15:38.774Z,5.17
2017-11-24T05:18:06.365Z,6.07
2017-11-24T05:20:33.929Z,5.40
2017-11-24T05:23:01.507Z,5.60
2017-11-24T05:25:29.831Z,5.50
2017-11-24T05:27:57.406Z,6.30
2017-11-24T05:30:24.981Z,5.77
2017-11-24T05:32:56.290Z,6.10
2017-11-24T05:35:23.862Z,5.73
2017-11-24T05:37:51.406Z,6.30
2017-11-24T05:40:18.967Z,5.40
2017-11-24T05:42:46.545Z,5.63
2017-11-24T05:45:14.123Z,6.27
2017-11-24T05:47:41.682Z,6.27
2017-11-24T05:50:09.261Z,6.60
2017-11-24T05:52:37.626Z,6.23
2017-11-24T05:55:05.192Z,12.50
2017-11-24T05:57:33.527Z,8.20
2017-11-24T06:00:01.171Z,7.00
2017-11-24T06:02:28.750Z,5.63
2017-11-24T06:04:56.320Z,6.67
2017-11-24T06:07:23.893Z,6.17
2017-11-24T06:09:51.434Z,6.60
2017-11-24T06:12:18.994Z,6.60
2017-11-24T06:14:46.563Z,6.50
2017-11-24T06:17:14.127Z,6.77
2017-11-24T06:19:41.679Z,6.00
2017-11-24T06:22:09.258Z,5.50
2017-11-24T06:24:36.797Z,6.63
2017-11-24T06:27:04.362Z,7.10
2017-11-24T06:29:31.950Z,6.87
2017-11-24T06:31:59.505Z,6.30
2017-11-24T06:34:27.058Z,6.20
2017-11-24T06:36:54.623Z,6.10
2017-11-24T06:39:22.174Z,6.30
2017-11-24T06:41:49.748Z,5.63
2017-11-24T06:44:18.190Z,6.63
2017-11-24T06:46:45.759Z,6.00
2017-11-24T06:49:13.328Z,5.90
2017-11-24T06:51:40.880Z,6.60
2017-11-24T06:54:08.434Z,7.10
2017-11-24T06:56:36.005Z,6.77
2017-11-24T06:59:03.577Z,6.67
2017-11-24T07:01:31.281Z,6.00
2017-11-24T07:03:58.863Z,6.37
2017-11-24T07:06:26.467Z,7.10
2017-11-24T07:08:54.029Z,6.10
2017-11-24T07:11:21.587Z,6.67
2017-11-24T07:13:49.163Z,6.70
2017-11-24T07:16:17.660Z,6.50
2017-11-24T07:18:45.258Z,7.27
2017-11-24T07:21:12.810Z,6.87
2017-11-24T07:23:40.393Z,6.77
2017-11-24T07:26:07.958Z,7.53
2017-11-24T07:28:35.528Z,6.40
2017-11-24T07:31:03.075Z,5.87
2017-11-24T07:33:30.684Z,6.50
2017-11-24T07:35:59.038Z,6.33
2017-11-24T07:38:26.633Z,5.63
2017-11-24T07:40:54.211Z,6.33
2017-11-24T07:43:21.770Z,5.97
2017-11-24T07:45:49.349Z,6.23
2017-11-24T07:48:16.921Z,5.20
2017-11-24T07:50:44.477Z,5.63
2017-11-24T07:53:12.043Z,5.80
2017-11-24T07:55:40.135Z,5.60
2017-11-24T07:58:07.709Z,5.93
2017-11-24T08:00:36.078Z,5.93
2017-11-24T08:03:03.658Z,6.23
2017-11-24T08:05:31.983Z,5.50
2017-11-24T08:07:59.528Z,5.03
2017-11-24T08:10:27.125Z,4.77
2017-11-24T08:12:54.703Z,5.10
2017-11-24T08:15:22.268Z,4.73
2017-11-24T08:17:50.611Z,4.60
2017-11-24T08:20:18.164Z,5.83
2017-11-24T08:22:45.775Z,4.87
2017-11-24T08:25:14.123Z,5.67
2017-11-24T08:27:46.437Z,4.63
2017-11-24T08:30:14.034Z,5.57
2017-11-24T08:32:41.620Z,4.57
2017-11-24T08:35:09.245Z,4.33
2017-11-24T08:37:36.812Z,4.70
2017-11-24T08:40:04.383Z,4.57
2017-11-24T08:42:31.943Z,4.67
2017-11-24T08:44:59.506Z,4.87
2017-11-24T08:47:32.787Z,4.80
2017-11-24T08:50:00.369Z,4.60
2017-11-24T08:52:27.923Z,4.40
2017-11-24T08:54:55.489Z,4.33
2017-11-24T08:57:23.075Z,4.90
2017-11-24T08:59:51.385Z,4.00
2017-11-24T09:02:18.968Z,3.73
2017-11-24T09:04:46.561Z,4.43
2017-11-24T09:07:14.114Z,4.40
2017-11-24T09:09:41.679Z,4.60
2017-11-24T09:12:09.271Z,4.27
2017-11-24T09:14:36.830Z,4.20
2017-11-24T09:17:05.144Z,3.90
2017-11-24T09:19:32.734Z,4.57
2017-11-24T09:22:00.298Z,4.43
2017-11-24T09:24:27.862Z,4.40
2017-11-24T09:26:55.425Z,4.90
2017-11-24T09:29:23.006Z,4.10
2017-11-24T09:31:51.353Z,4.50
2017-11-24T09:34:18.910Z,4.17
2017-11-24T09:36:46.489Z,4.17
2017-11-24T09:39:14.069Z,4.20
2017-11-24T09:41:42.391Z,4.10
2017-11-24T09:44:09.947Z,4.60
2017-11-24T09:46:37.516Z,4.43
2017-11-24T09:49:05.090Z,4.30
2017-11-24T09:51:32.676Z,4.00
2017-11-24T09:54:01.019Z,3.83
2017-11-24T09:56:28.588Z,3.80
2017-11-24T09:58:56.159Z,3.83
2017-11-24T10:01:23.812Z,4.03
2017-11-24T10:03:51.376Z,3.77
2017-11-24T10:06:18.966Z,4.00
2017-11-24T10:08:47.273Z,4.50
2017-11-24T10:11:14.829Z,7.60
2017-11-24T10:13:42.396Z,3.90
2017-11-24T10:16:09.967Z,5.10
2017-11-24T10:18:37.537Z,3.90
2017-11-24T10:21:11.943Z,3.67
2017-11-24T10:23:39.522Z,4.17
2017-11-24T10:26:07.105Z,3.77
2017-11-24T10:28:34.700Z,3.40
2017-11-24T10:31:02.300Z,3.87
2017-11-24T10:33:29.846Z,3.90
2017-11-24T10:35:57.407Z,4.37
2017-11-24T10:38:24.998Z,4.20
2017-11-24T10:40:52.544Z,4.47
2017-11-24T10:43:20.121Z,4.40
2017-11-24T10:45:48.477Z,3.93
2017-11-24T10:48:16.060Z,3.93
2017-11-24T10:50:43.613Z,3.87
2017-11-24T10:53:11.208Z,4.37
2017-11-24T10:55:38.795Z,4.53
2017-11-24T10:58:06.342Z,4.40
2017-11-24T11:00:33.937Z,4.10
2017-11-24T11:03:01.498Z,4.17
2017-11-24T11:05:29.079Z,4.37
2017-11-24T11:07:56.636Z,5.30
2017-11-24T11:10:24.204Z,4.60
2017-11-24T11:12:51.786Z,4.63
2017-11-24T11:15:19.337Z,4.67
2017-11-24T11:17:46.905Z,5.13
2017-11-24T11:20:14.494Z,5.27
2017-11-24T11:22:42.057Z,4.70
2017-11-24T11:25:09.628Z,4.90
2017-11-24T11:27:37.963Z,4.60
2017-11-24T11:30:05.537Z,6.37
2017-11-24T11:32:33.120Z,6.63
2017-11-24T11:35:01.467Z,5.40
2017-11-24T11:37:29.064Z,6.57
2017-11-24T11:39:57.397Z,6.70
2017-11-24T11:42:25.019Z,7.23
2017-11-24T11:44:52.594Z,7.37
2017-11-24T11:47:20.165Z,8.67
2017-11-24T11:49:48.702Z,6.87
2017-11-24T11:52:17.087Z,7.43
2017-11-24T11:54:45.424Z,7.00
2017-11-24T11:57:13.173Z,7.97
2017-11-24T11:59:40.755Z,7.07
2017-11-24T12:02:08.313Z,7.00
2017-11-24T12:04:35.881Z,7.73
2017-11-24T12:07:05.205Z,6.60
2017-11-24T12:09:33.542Z,6.83
2017-11-24T12:12:01.120Z,7.00
2017-11-24T12:14:28.673Z,8.43
2017-11-24T12:16:56.252Z,7.00
2017-11-24T12:19:23.849Z,7.90
2017-11-24T12:21:51.419Z,7.30
2017-11-24T12:24:18.974Z,8.00
2017-11-24T12:26:46.522Z,6.87
2017-11-24T12:29:14.301Z,8.03
2017-11-24T12:31:42.022Z,7.87
2017-11-24T12:34:10.382Z,8.07
2017-11-24T12:36:37.998Z,8.20
2017-11-24T12:39:05.607Z,8.40
2017-11-24T12:41:36.156Z,8.20
2017-11-24T12:44:04.505Z,10.07
2017-11-24T12:46:32.084Z,9.70
2017-11-24T12:48:59.667Z,8.53
2017-11-24T12:51:27.982Z,9.63
2017-11-24T12:53:55.579Z,9.00
2017-11-24T12:56:23.154Z,9.57
2017-11-24T12:58:50.746Z,9.80
2017-11-24T13:01:18.304Z,8.77
2017-11-24T13:03:45.895Z,9.10
2017-11-24T13:06:13.464Z,9.13
2017-11-24T13:08:41.140Z,10.40
2017-11-24T13:11:08.733Z,10.93
2017-11-24T13:13:37.070Z,10.90
2017-11-24T13:16:04.650Z,10.37
2017-11-24T13:18:32.239Z,9.27
2017-11-24T13:21:00.592Z,8.63
2017-11-24T13:23:28.176Z,10.13
2017-11-24T13:25:56.527Z,8.63
2017-11-24T13:28:24.100Z,9.40
2017-11-24T13:30:52.471Z,9.00
2017-11-24T13:33:20.914Z,8.80
2017-11-24T13:35:48.480Z,9.00
2017-11-24T13:38:16.058Z,9.50
2017-11-24T13:40:43.654Z,9.53
2017-11-24T13:43:11.986Z,9.10
2017-11-24T13:45:39.569Z,10.57
2017-11-24T13:48:07.140Z,9.63
2017-11-24T13:50:35.510Z,10.53
2017-11-24T13:53:03.100Z,10.10
2017-11-24T13:55:30.667Z,10.10
2017-11-24T13:57:58.270Z,10.70
2017-11-24T14:00:25.828Z,9.30
2017-11-24T14:02:53.433Z,9.73
2017-11-24T14:05:21.776Z,9.40
2017-11-24T14:07:49.344Z,8.97
2017-11-24T14:10:16.937Z,9.73
2017-11-24T14:12:44.558Z,9.50
2017-11-24T14:15:12.146Z,9.83
2017-11-24T14:17:40.465Z,9.97
2017-11-24T14:20:08.055Z,9.70
2017-11-24T14:22:35.623Z,9.30
2017-11-24T14:25:03.203Z,10.70
2017-11-24T14:27:31.553Z,10.50
2017-11-24T14:29:59.120Z,9.47
2017-11-24T14:32:26.670Z,10.93
2017-11-24T14:34:54.284Z,9.50
2017-11-24T14:37:21.848Z,8.67
2017-11-24T14:39:49.534Z,9.37
2017-11-24T14:42:17.154Z,9.50
2017-11-24T14:44:45.466Z,19.30
2017-11-24T14:47:13.071Z,33.00
2017-11-24T14:49:40.632Z,21.23
2017-11-24T14:52:08.222Z,15.03
2017-11-24T14:54:36.586Z,9.43
2017-11-24T14:57:04.960Z,8.83
2017-11-24T14:59:32.524Z,8.63
2017-11-24T15:02:00.874Z,10.23
2017-11-24T15:04:28.439Z,8.17
2017-11-24T15:06:55.989Z,9.43
2017-11-24T15:09:23.582Z,15.83
2017-11-24T15:11:51.899Z,8.20
2017-11-24T15:14:19.483Z,7.17
2017-11-24T15:16:47.035Z,8.00
2017-11-24T15:19:15.316Z,7.13
2017-11-24T15:21:42.923Z,10.00
2017-11-24T15:24:11.254Z,10.60
2017-11-24T15:26:38.831Z,9.27
2017-11-24T15:29:06.391Z,9.33
2017-11-24T15:31:33.995Z,10.77
2017-11-24T15:34:02.329Z,10.97
2017-11-24T15:36:29.902Z,8.27
2017-11-24T15:38:57.466Z,8.53
2017-11-24T15:41:27.703Z,9.07
2017-11-24T15:43:56.044Z,8.50
2017-11-24T15:46:44.703Z,8.40
2017-11-24T15:52:14.921Z,9.13
2017-11-24T15:57:27.181Z,9.10
2017-11-24T15:59:58.360Z,9.60
2017-11-24T16:05:53.358Z,9.10
2017-11-24T16:11:17.886Z,9.37
2017-11-24T16:13:45.503Z,10.60
2017-11-24T16:16:13.847Z,9.23
2017-11-24T16:18:42.201Z,14.40
2017-11-24T16:21:09.825Z,8.80
2017-11-24T16:23:37.399Z,10.30
2017-11-24T16:26:06.904Z,9.00
2017-11-24T16:28:34.492Z,8.63
2017-11-24T16:31:02.828Z,7.90
2017-11-24T16:33:30.428Z,10.27
2017-11-24T16:35:58.052Z,9.07
2017-11-24T16:38:25.632Z,9.30
2017-11-24T16:40:53.246Z,8.30
2017-11-24T16:43:20.830Z,8.40
2017-11-24T16:45:48.421Z,7.97
2017-11-24T16:48:15.988Z,8.70
2017-11-24T16:50:43.664Z,8.90
2017-11-24T16:53:11.999Z,8.87
2017-11-24T16:55:39.588Z,8.40
2017-11-24T16:58:07.148Z,9.23
2017-11-24T17:00:34.707Z,8.63
2017-11-24T17:03:02.374Z,8.23
2017-11-24T17:05:30.157Z,9.40
2017-11-24T17:07:58.568Z,9.33
2017-11-24T17:10:26.286Z,9.03
2017-11-24T17:12:54.330Z,9.17
2017-11-24T17:15:21.927Z,10.20
2017-11-24T17:17:54.967Z,11.37
2017-11-24T17:20:22.685Z,11.27
2017-11-24T17:22:52.261Z,10.67
2017-11-24T17:25:25.889Z,11.80
2017-11-24T17:27:54.153Z,10.97
2017-11-24T17:30:21.744Z,11.03
2017-11-24T17:32:49.317Z,10.10
2017-11-24T17:35:16.899Z,10.37
2017-11-24T17:37:44.474Z,11.10
2017-11-24T17:40:12.071Z,10.93
2017-11-24T17:42:40.411Z,16.23
2017-11-24T17:45:08.019Z,10.97
2017-11-24T17:47:36.363Z,10.43
2017-11-24T17:50:03.966Z,9.70
2017-11-24T17:52:31.564Z,9.37
2017-11-24T17:54:59.145Z,9.10
2017-11-24T17:57:26.706Z,9.83
2017-11-24T17:59:54.307Z,9.80
2017-11-24T18:02:23.933Z,9.77
2017-11-24T18:04:54.590Z,9.50
2017-11-24T18:07:23.931Z,12.27
2017-11-24T18:09:55.427Z,10.13
2017-11-24T18:12:23.012Z,9.50
2017-11-24T18:14:53.542Z,9.13
2017-11-24T18:17:24.636Z,10.80
2017-11-24T18:19:52.220Z,11.23
2017-11-24T18:22:21.863Z,9.70
2017-11-24T18:24:52.803Z,8.30
2017-11-24T18:27:22.553Z,9.60
2017-11-24T18:29:52.179Z,8.77
2017-11-24T18:32:21.925Z,9.20
2017-11-24T18:34:52.833Z,8.27
2017-11-24T18:37:21.979Z,8.40
2017-11-24T18:39:52.653Z,9.00
2017-11-24T18:42:22.602Z,8.90
2017-11-24T18:44:50.188Z,10.23
2017-11-24T18:47:17.789Z,12.50
2017-11-24T18:49:46.137Z,12.47
2017-11-24T18:52:13.695Z,15.37
2017-11-24T18:54:41.300Z,9.60
2017-11-24T18:57:08.873Z,7.70
2017-11-24T18:59:36.467Z,7.47
2017-11-24T19:02:07.527Z,6.80
2017-11-24T19:04:47.143Z,7.10
2017-11-24T19:07:25.519Z,15.00
2017-11-24T19:09:56.465Z,18.30
2017-11-24T19:12:24.038Z,12.77
2017-11-24T19:18:08.372Z,11.13
2017-11-24T19:20:40.222Z,12.00
2017-11-24T19:23:15.674Z,10.23
2017-11-24T19:28:47.652Z,8.43
2017-11-24T19:31:17.247Z,10.70
2017-11-24T19:33:44.915Z,13.93
2017-11-24T19:36:13.189Z,10.43
2017-11-24T19:38:40.809Z,19.60
2017-11-24T19:41:09.189Z,12.27
2017-11-24T19:43:39.696Z,11.60
2017-11-24T19:46:10.262Z,8.70
2017-11-24T19:48:41.014Z,6.67
2017-11-24T19:51:10.058Z,5.50
2017-11-24T19:53:41.076Z,5.43
2017-11-24T19:56:10.148Z,6.73
2017-11-24T19:58:38.650Z,5.87
2017-11-24T20:01:07.294Z,6.30
2017-11-24T20:06:29.089Z,7.00
2017-11-24T20:08:56.902Z,5.43
2017-11-24T20:11:24.848Z,5.13
2017-11-24T20:13:52.792Z,5.30
2017-11-24T20:16:20.721Z,5.27
2017-11-24T20:18:49.389Z,5.43
2017-11-24T20:21:18.023Z,5.07
2017-11-24T20:23:45.905Z,4.23
2017-11-24T20:26:13.785Z,4.10
2017-11-24T20:31:22.960Z,4.70
2017-11-24T20:33:56.687Z,4.60
2017-11-24T20:36:26.273Z,4.40
2017-11-24T20:38:58.378Z,4.70
2017-11-24T20:41:26.660Z,4.43
2017-11-24T20:43:54.570Z,4.30
2017-11-24T20:46:24.418Z,4.03
2017-11-24T20:48:56.045Z,3.90
2017-11-24T20:51:27.192Z,4.50
2017-11-24T20:53:55.048Z,4.03
2017-11-24T20:56:22.937Z,4.37
2017-11-24T20:58:54.590Z,4.03
2017-11-24T21:01:24.939Z,4.53
2017-11-24T21:04:01.684Z,5.00
2017-11-24T21:06:31.378Z,4.20
2017-11-24T21:09:03.778Z,4.00
2017-11-24T21:11:32.662Z,3.83
2017-11-24T21:14:05.215Z,3.93
2017-11-24T21:16:46.088Z,5.03
2017-11-24T21:19:15.080Z,5.23
2017-11-24T21:21:45.518Z,3.50
2017-11-24T21:24:13.123Z,4.30
2017-11-24T21:26:41.527Z,3.50
2017-11-24T21:29:10.206Z,6.90
2017-11-24T21:31:41.091Z,7.30
2017-11-24T21:34:12.363Z,3.50
2017-11-24T21:36:41.356Z,4.90
2017-11-24T21:39:10.659Z,4.10
2017-11-24T21:41:41.654Z,6.40
2017-11-24T21:44:11.590Z,6.43
2017-11-24T21:46:43.180Z,4.73
2017-11-24T21:49:11.674Z,5.00
2017-11-24T21:51:40.207Z,5.00
2017-11-24T21:54:09.436Z,5.10
2017-11-24T21:56:42.557Z,4.30
2017-11-24T21:59:11.935Z,4.33
2017-11-24T22:01:39.549Z,5.60
2017-11-24T22:04:07.401Z,4.20
2017-11-24T22:06:35.051Z,4.43
2017-11-24T22:09:05.710Z,5.77
2017-11-24T22:11:34.850Z,4.00
2017-11-24T22:14:09.419Z,5.40
2017-11-24T22:16:37.729Z,6.27
2017-11-24T22:19:05.319Z,5.27
2017-11-24T22:21:32.923Z,5.80
2017-11-24T22:24:00.508Z,4.90
2017-11-24T22:26:28.069Z,5.03
2017-11-24T22:28:55.632Z,5.20
2017-11-24T22:31:23.164Z,4.60
2017-11-24T22:33:50.718Z,4.83
2017-11-24T22:36:19.062Z,4.87
2017-11-24T22:38:46.628Z,5.50
2017-11-24T22:41:14.180Z,7.10
2017-11-24T22:43:41.761Z,5.00
2017-11-24T22:46:09.326Z,4.70
2017-11-24T22:48:37.663Z,4.20
2017-11-24T22:51:05.236Z,5.80
2017-11-24T22:53:32.815Z,4.67
2017-11-24T22:56:00.393Z,4.60
2017-11-24T22:58:28.769Z,4.90
2017-11-24T23:00:57.114Z,5.47
2017-11-24T23:03:24.671Z,6.07
2017-11-24T23:05:52.270Z,9.10
2017-11-24T23:08:20.598Z,5.60
2017-11-24T23:10:48.188Z,6.33
2017-11-24T23:13:15.806Z,9.37
2017-11-24T23:15:43.361Z,6.03
2017-11-24T23:18:10.932Z,10.00
2017-11-24T23:20:38.488Z,9.70
2017-11-24T23:23:06.045Z,10.10
2017-11-24T23:25:33.617Z,6.60
2017-11-24T23:28:01.183Z,5.20
2017-11-24T23:30:28.763Z,4.40
2017-11-24T23:32:56.343Z,3.97
2017-11-24T23:35:24.662Z,3.70
2017-11-24T23:37:52.211Z,3.87
2017-11-24T23:40:19.775Z,3.30
2017-11-24T23:42:47.343Z,3.67
2017-11-24T23:45:14.936Z,3.77
2017-11-24T23:47:42.492Z,3.37
2017-11-24T23:50:10.063Z,3.80
2017-11-24T23:52:37.612Z,3.50
2017-11-24T23:55:05.178Z,2.57
2017-11-24T23:57:32.742Z,3.17
